Wetterdaten: Woche 10.05.10 - 16.05.10 (KW19)
Datum Zeit Temp. A. Feuchte A. Luftdruck Regen Wind Richtung Taupunkt Windchill Windben
10.05.2010 00:00 10,1 C 93 % 1005,0 hPa 0,7 l/m 0,0 km/h NO 9,0 C 10,1 C 0,0 km/h
10.05.2010 01:00 9,9 C 93 % 1004,5 hPa 0,4 l/m 0,0 km/h O 8,8 C 9,9 C 0,0 km/h
10.05.2010 02:00 9,8 C 93 % 1003,6 hPa 0,0 l/m 0,0 km/h SO 8,7 C 9,8 C 0,0 km/h
10.05.2010 03:00 9,9 C 93 % 1003,4 hPa 0,0 l/m 0,0 km/h SO 8,8 C 9,9 C 0,0 km/h
10.05.2010 04:00 9,9 C 93 % 1003,0 hPa 0,4 l/m 0,0 km/h W-SW 8,8 C 9,9 C 0,0 km/h
10.05.2010 05:00 9,9 C 93 % 1003,2 hPa 0,0 l/m 0,0 km/h S 8,8 C 9,9 C 0,0 km/h
10.05.2010 06:00 10,1 C 94 % 1003,5 hPa 0,4 l/m 0,0 km/h S 9,2 C 10,1 C 0,0 km/h
10.05.2010 07:00 10,3 C 94 % 1003,9 hPa 0,4 l/m 0,0 km/h S 9,4 C 10,3 C 0,0 km/h
10.05.2010 08:00 10,6 C 93 % 1004,2 hPa 0,4 l/m 0,0 km/h S 9,5 C 10,6 C 0,0 km/h
10.05.2010 09:00 11,1 C 93 % 1004,5 hPa 0,7 l/m 0,0 km/h W-SW 10,0 C 11,1 C 0,0 km/h
10.05.2010 10:00 12,1 C 92 % 1004,6 hPa 0,0 l/m 0,0 km/h W-SW 10,8 C 12,1 C 0,0 km/h
10.05.2010 11:00 13,1 C 87 % 1004,9 hPa 0,0 l/m 0,0 km/h W-SW 11,0 C 13,1 C 0,0 km/h
10.05.2010 12:00 14,6 C 84 % 1004,9 hPa 0,0 l/m 0,0 km/h W 11,9 C 14,6 C 0,0 km/h
10.05.2010 13:00 16,1 C 78 % 1004,9 hPa 0,0 l/m 0,0 km/h S 12,3 C 16,1 C 0,0 km/h
10.05.2010 14:00 17,1 C 73 % 1004,9 hPa 0,0 l/m 0,0 km/h W-NW 12,2 C 17,1 C 0,0 km/h
10.05.2010 15:00 22,2 C 62 % 1004,7 hPa 0,4 l/m 0,0 km/h N 14,6 C 22,2 C 0,0 km/h
10.05.2010 16:00 18,7 C 67 % 1004,5 hPa 0,0 l/m 0,0 km/h NO 12,4 C 18,7 C 0,0 km/h
10.05.2010 17:00 22,9 C 58 % 1004,4 hPa 0,0 l/m 0,0 km/h W-NW 14,2 C 22,9 C 0,0 km/h
10.05.2010 18:00 21,5 C 57 % 1004,4 hPa 0,0 l/m 0,0 km/h W 12,6 C 21,5 C 0,0 km/h
10.05.2010 19:00 15,1 C 75 % 1004,5 hPa 0,0 l/m 0,0 km/h NW 10,7 C 15,1 C 0,0 km/h
10.05.2010 20:00 13,0 C 85 % 1005,1 hPa 0,0 l/m 0,0 km/h S-SO 10,5 C 13,0 C 0,0 km/h
10.05.2010 21:00 10,8 C 88 % 1005,3 hPa 0,0 l/m 0,0 km/h SO 8,9 C 10,8 C 0,0 km/h
10.05.2010 22:00 9,8 C 90 % 1005,3 hPa 0,0 l/m 0,0 km/h O-NO 8,2 C 9,8 C 0,0 km/h
10.05.2010 23:00 9,3 C 92 % 1005,5 hPa 0,0 l/m 0,0 km/h O-SO 8,1 C 9,3 C 0,0 km/h
11.05.2010 00:00 8,6 C 92 % 1005,4 hPa 0,0 l/m 0,0 km/h O-SO 7,4 C 8,6 C 0,0 km/h
11.05.2010 01:00 8,1 C 92 % 1005,0 hPa 0,0 l/m 0,0 km/h O-SO 6,9 C 8,1 C 0,0 km/h
11.05.2010 02:00 7,6 C 93 % 1004,7 hPa 0,0 l/m 0,0 km/h NO 6,5 C 7,6 C 0,0 km/h
11.05.2010 03:00 6,6 C 93 % 1004,3 hPa 0,0 l/m 0,0 km/h N-NO 5,6 C 6,6 C 0,0 km/h
11.05.2010 04:00 6,1 C 93 % 1004,2 hPa 0,0 l/m 0,0 km/h O 5,1 C 6,1 C 0,0 km/h
11.05.2010 05:00 6,4 C 94 % 1004,3 hPa 0,0 l/m 0,0 km/h N 5,5 C 6,4 C 0,0 km/h
11.05.2010 06:00 7,4 C 94 % 1004,1 hPa 0,0 l/m 0,0 km/h NO 6,5 C 7,4 C 0,0 km/h
11.05.2010 07:00 9,6 C 94 % 1004,1 hPa 0,0 l/m 0,0 km/h W 8,7 C 9,6 C 0,0 km/h
11.05.2010 08:00 10,7 C 94 % 1003,9 hPa 0,0 l/m 0,0 km/h N 9,8 C 10,7 C 0,0 km/h
11.05.2010 09:00 13,2 C 88 % 1002,9 hPa 0,0 l/m 0,0 km/h W-SW 11,3 C 13,2 C 0,0 km/h
11.05.2010 10:00 16,5 C 76 % 1002,0 hPa 0,0 l/m 16,8 km/h N-NW 12,3 C 12,5 C 9,4 km/h
11.05.2010 11:00 14,1 C 81 % 1002,0 hPa 0,0 l/m 1,3 km/h W-SW 10,9 C 14,1 C 0,7 km/h
11.05.2010 12:00 16,4 C 77 % 1001,4 hPa 0,0 l/m 2,6 km/h W 12,4 C 16,4 C 1,4 km/h
11.05.2010 13:00 19,8 C 67 % 1000,5 hPa 0,0 l/m 5,2 km/h NW 13,5 C 19,8 C 2,9 km/h
11.05.2010 14:00 15,2 C 76 % 1001,0 hPa 0,0 l/m 1,9 km/h N-NO 11,0 C 15,2 C 1,1 km/h
11.05.2010 15:00 14,1 C 85 % 1001,2 hPa 0,0 l/m 0,0 km/h S 11,6 C 14,1 C 0,0 km/h
11.05.2010 16:00 14,8 C 85 % 1001,9 hPa 0,4 l/m 0,0 km/h W-SW 12,3 C 14,8 C 0,0 km/h
11.05.2010 17:00 13,4 C 85 % 1002,6 hPa 0,0 l/m 14,9 km/h SO 10,9 C 9,3 C 8,3 km/h
11.05.2010 18:00 14,5 C 84 % 1002,6 hPa 0,0 l/m 3,9 km/h SW 11,8 C 14,5 C 2,2 km/h
11.05.2010 19:00 13,5 C 81 % 1003,1 hPa 0,0 l/m 17,5 km/h S-SW 10,3 C 8,5 C 9,7 km/h
11.05.2010 20:00 13,2 C 80 % 1003,1 hPa 0,0 l/m 16,8 km/h S-SW 9,8 C 8,4 C 9,4 km/h
11.05.2010 21:00 11,8 C 84 % 1003,5 hPa 0,0 l/m 11,7 km/h SW 9,2 C 8,7 C 6,5 km/h
11.05.2010 22:00 12,3 C 81 % 1003,9 hPa 0,0 l/m 20,1 km/h W-SW 9,1 C 6,2 C 11,2 km/h
11.05.2010 23:00 12,1 C 81 % 1004,5 hPa 0,0 l/m 11,7 km/h W 8,9 C 9,1 C 6,5 km/h
12.05.2010 00:00 11,6 C 83 % 1005,0 hPa 0,0 l/m 3,9 km/h W-SW 8,8 C 11,6 C 2,2 km/h
12.05.2010 01:00 11,3 C 83 % 1005,2 hPa 0,0 l/m 0,0 km/h N-NO 8,5 C 11,3 C 0,0 km/h
12.05.2010 02:00 10,1 C 87 % 1005,3 hPa 0,0 l/m 0,0 km/h W-NW 8,0 C 10,1 C 0,0 km/h
12.05.2010 03:00 8,4 C 89 % 1005,7 hPa 0,0 l/m 0,0 km/h NO 6,7 C 8,4 C 0,0 km/h
12.05.2010 04:00 8,9 C 90 % 1006,2 hPa 0,0 l/m 0,0 km/h SO 7,4 C 8,9 C 0,0 km/h
12.05.2010 05:00 8,6 C 91 % 1006,3 hPa 0,0 l/m 0,0 km/h SO 7,2 C 8,6 C 0,0 km/h
12.05.2010 06:00 8,8 C 92 % 1006,4 hPa 0,0 l/m 0,0 km/h O-SO 7,6 C 8,8 C 0,0 km/h
12.05.2010 07:00 11,8 C 90 % 1006,4 hPa 0,0 l/m 0,0 km/h NO 10,2 C 11,8 C 0,0 km/h
12.05.2010 08:00 14,5 C 76 % 1006,9 hPa 0,0 l/m 0,0 km/h W 10,3 C 14,5 C 0,0 km/h
12.05.2010 09:00 16,7 C 68 % 1006,8 hPa 0,0 l/m 0,0 km/h W 10,8 C 16,7 C 0,0 km/h
12.05.2010 10:00 19,8 C 60 % 1007,0 hPa 0,0 l/m 1,3 km/h W-NW 11,8 C 19,8 C 0,7 km/h
12.05.2010 11:00 19,3 C 58 % 1006,8 hPa 0,0 l/m 6,5 km/h W-NW 10,8 C 19,3 C 3,6 km/h
12.05.2010 12:00 18,6 C 59 % 1006,5 hPa 0,0 l/m 0,0 km/h N-NW 10,4 C 18,6 C 0,0 km/h
12.05.2010 13:00 19,4 C 52 % 1006,4 hPa 0,0 l/m 1,3 km/h N 9,3 C 19,4 C 0,7 km/h
12.05.2010 14:00 23,1 C 47 % 1005,8 hPa 0,0 l/m 6,5 km/h N-NO 11,2 C 23,1 C 3,6 km/h
12.05.2010 15:00 21,5 C 51 % 1005,4 hPa 0,0 l/m 0,0 km/h N-NO 10,9 C 21,5 C 0,0 km/h
12.05.2010 16:00 22,8 C 47 % 1005,6 hPa 0,0 l/m 20,1 km/h NW 10,9 C 19,8 C 11,2 km/h
12.05.2010 17:00 17,8 C 57 % 1005,6 hPa 0,0 l/m 6,5 km/h N 9,2 C 17,8 C 3,6 km/h
12.05.2010 18:00 15,1 C 64 % 1006,2 hPa 0,0 l/m 1,3 km/h NW 8,3 C 15,1 C 0,7 km/h
12.05.2010 19:00 12,7 C 70 % 1006,6 hPa 0,0 l/m 7,8 km/h N-NO 7,4 C 11,8 C 4,3 km/h
12.05.2010 20:00 11,8 C 71 % 1007,0 hPa 0,0 l/m 20,1 km/h N-NW 6,7 C 5,6 C 11,2 km/h
12.05.2010 21:00 11,0 C 73 % 1007,6 hPa 0,0 l/m 0,6 km/h N 6,4 C 11,0 C 0,4 km/h
12.05.2010 22:00 10,5 C 73 % 1007,8 hPa 0,0 l/m 0,0 km/h N-NO 5,9 C 10,5 C 0,0 km/h
12.05.2010 23:00 9,3 C 80 % 1007,8 hPa 0,4 l/m 0,0 km/h N 6,0 C 9,3 C 0,0 km/h
13.05.2010 00:00 8,9 C 84 % 1007,7 hPa 0,0 l/m 0,0 km/h N 6,3 C 8,9 C 0,0 km/h
13.05.2010 01:00 8,4 C 87 % 1007,8 hPa 1,1 l/m 0,0 km/h N-NO 6,4 C 8,4 C 0,0 km/h
13.05.2010 02:00 7,9 C 89 % 1007,8 hPa 0,7 l/m 0,0 km/h N-NO 6,2 C 7,9 C 0,0 km/h
13.05.2010 03:00 7,3 C 89 % 1007,8 hPa 2,1 l/m 0,0 km/h N-NW 5,6 C 7,3 C 0,0 km/h
13.05.2010 04:00 6,9 C 90 % 1008,0 hPa 1,8 l/m 0,6 km/h NW 5,4 C 6,9 C 0,4 km/h
13.05.2010 05:00 6,7 C 91 % 1008,0 hPa 1,8 l/m 0,0 km/h W-NW 5,3 C 6,7 C 0,0 km/h
13.05.2010 06:00 6,5 C 92 % 1008,4 hPa 1,4 l/m 0,0 km/h NW 5,3 C 6,5 C 0,0 km/h
13.05.2010 07:00 6,4 C 92 % 1009,1 hPa 2,1 l/m 0,0 km/h W-NW 5,2 C 6,4 C 0,0 km/h
13.05.2010 08:00 6,4 C 92 % 1009,6 hPa 3,6 l/m 0,0 km/h NW 5,2 C 6,4 C 0,0 km/h
13.05.2010 09:00 7,2 C 92 % 1009,8 hPa 3,6 l/m 0,0 km/h W-NW 6,0 C 7,2 C 0,0 km/h
13.05.2010 10:00 8,1 C 90 % 1009,7 hPa 1,1 l/m 0,0 km/h W-NW 6,6 C 8,1 C 0,0 km/h
13.05.2010 11:00 7,8 C 90 % 1010,0 hPa 1,4 l/m 0,0 km/h SW 6,3 C 7,8 C 0,0 km/h
13.05.2010 12:00 8,2 C 90 % 1010,0 hPa 0,4 l/m 6,5 km/h W-NW 6,7 C 8,1 C 3,6 km/h
13.05.2010 13:00 8,3 C 89 % 1009,9 hPa 0,4 l/m 1,3 km/h NW 6,6 C 8,3 C 0,7 km/h
13.05.2010 14:00 8,4 C 89 % 1010,0 hPa 0,4 l/m 0,0 km/h NW 6,7 C 8,4 C 0,0 km/h
13.05.2010 15:00 8,5 C 90 % 1009,7 hPa 0,7 l/m 0,0 km/h N-NW 7,0 C 8,5 C 0,0 km/h
13.05.2010 16:00 8,9 C 89 % 1009,7 hPa 0,7 l/m 0,0 km/h N 7,2 C 8,9 C 0,0 km/h
13.05.2010 17:00 9,3 C 88 % 1009,6 hPa 0,7 l/m 0,0 km/h N 7,4 C 9,3 C 0,0 km/h
13.05.2010 18:00 9,6 C 86 % 1009,7 hPa 0,0 l/m 0,0 km/h O 7,4 C 9,6 C 0,0 km/h
13.05.2010 19:00 8,4 C 88 % 1009,7 hPa 0,0 l/m 0,0 km/h N-NW 6,5 C 8,4 C 0,0 km/h
13.05.2010 20:00 7,9 C 89 % 1010,1 hPa 0,0 l/m 0,0 km/h N-NO 6,2 C 7,9 C 0,0 km/h
13.05.2010 21:00 7,4 C 90 % 1010,1 hPa 0,0 l/m 0,0 km/h N-NO 5,9 C 7,4 C 0,0 km/h
13.05.2010 22:00 7,2 C 91 % 1010,0 hPa 0,4 l/m 0,0 km/h N-NO 5,8 C 7,2 C 0,0 km/h
13.05.2010 23:00 7,1 C 92 % 1010,0 hPa 0,0 l/m 0,0 km/h N-NO 5,9 C 7,1 C 0,0 km/h
14.05.2010 00:00 6,9 C 92 % 1009,5 hPa 0,0 l/m 0,0 km/h N-NO 5,7 C 6,9 C 0,0 km/h
14.05.2010 01:00 6,9 C 92 % 1009,4 hPa 0,0 l/m 0,0 km/h NW 5,7 C 6,9 C 0,0 km/h
14.05.2010 02:00 6,9 C 93 % 1009,1 hPa 0,0 l/m 0,0 km/h NW 5,8 C 6,9 C 0,0 km/h
14.05.2010 03:00 6,9 C 93 % 1009,0 hPa 0,0 l/m 0,0 km/h N-NW 5,8 C 6,9 C 0,0 km/h
14.05.2010 04:00 6,9 C 93 % 1008,8 hPa 0,0 l/m 0,0 km/h NW 5,8 C 6,9 C 0,0 km/h
14.05.2010 05:00 6,7 C 94 % 1008,5 hPa 0,0 l/m 0,0 km/h NW 5,8 C 6,7 C 0,0 km/h
14.05.2010 06:00 7,3 C 94 % 1008,5 hPa 0,0 l/m 0,0 km/h W-SW 6,4 C 7,3 C 0,0 km/h
14.05.2010 07:00 8,6 C 92 % 1008,5 hPa 0,0 l/m 0,0 km/h W-SW 7,4 C 8,6 C 0,0 km/h
14.05.2010 08:00 9,9 C 86 % 1008,7 hPa 0,0 l/m 0,0 km/h NW 7,7 C 9,9 C 0,0 km/h
14.05.2010 09:00 12,9 C 79 % 1008,6 hPa 0,0 l/m 0,0 km/h O-SO 9,3 C 12,9 C 0,0 km/h
14.05.2010 10:00 16,0 C 63 % 1008,5 hPa 0,0 l/m 0,0 km/h N-NO 9,0 C 16,0 C 0,0 km/h
14.05.2010 11:00 13,9 C 64 % 1008,6 hPa 0,0 l/m 2,6 km/h W-NW 7,2 C 13,9 C 1,4 km/h
14.05.2010 12:00 14,2 C 62 % 1008,4 hPa 0,0 l/m 0,0 km/h N-NO 7,0 C 14,2 C 0,0 km/h
14.05.2010 13:00 14,3 C 60 % 1008,1 hPa 0,0 l/m 0,0 km/h O-SO 6,6 C 14,3 C 0,0 km/h
14.05.2010 14:00 12,9 C 66 % 1008,4 hPa 0,0 l/m 0,0 km/h N 6,7 C 12,9 C 0,0 km/h
14.05.2010 15:00 12,9 C 66 % 1008,4 hPa 0,0 l/m 0,0 km/h N-NO 6,7 C 12,9 C 0,0 km/h
14.05.2010 16:00 12,1 C 67 % 1008,6 hPa 0,0 l/m 0,0 km/h NO 6,2 C 12,1 C 0,0 km/h
14.05.2010 17:00 12,1 C 69 % 1008,5 hPa 0,0 l/m 0,0 km/h N 6,6 C 12,1 C 0,0 km/h
14.05.2010 18:00 11,6 C 70 % 1008,5 hPa 0,0 l/m 0,0 km/h N-NO 6,3 C 11,6 C 0,0 km/h
14.05.2010 19:00 10,8 C 72 % 1008,5 hPa 0,0 l/m 0,0 km/h N-NO 6,0 C 10,8 C 0,0 km/h
14.05.2010 20:00 9,8 C 77 % 1008,8 hPa 0,0 l/m 0,0 km/h N-NO 6,0 C 9,8 C 0,0 km/h
14.05.2010 21:00 8,6 C 83 % 1008,8 hPa 0,0 l/m 0,0 km/h N-NO 5,9 C 8,6 C 0,0 km/h
14.05.2010 22:00 8,1 C 86 % 1009,1 hPa 0,0 l/m 0,0 km/h NO 5,9 C 8,1 C 0,0 km/h
14.05.2010 23:00 7,6 C 88 % 1009,0 hPa 0,0 l/m 0,0 km/h O 5,7 C 7,6 C 0,0 km/h
15.05.2010 00:00 7,4 C 89 % 1008,9 hPa 0,0 l/m 0,0 km/h O 5,7 C 7,4 C 0,0 km/h
15.05.2010 01:00 7,7 C 90 % 1008,7 hPa 0,0 l/m 0,0 km/h O 6,2 C 7,7 C 0,0 km/h
15.05.2010 02:00 7,4 C 90 % 1008,1 hPa 0,0 l/m 0,0 km/h N-NO 5,9 C 7,4 C 0,0 km/h
15.05.2010 03:00 7,6 C 90 % 1008,1 hPa 0,0 l/m 0,0 km/h N 6,1 C 7,6 C 0,0 km/h
15.05.2010 04:00 7,9 C 90 % 1007,8 hPa 0,0 l/m 0,0 km/h S-SO 6,4 C 7,9 C 0,0 km/h
15.05.2010 05:00 7,8 C 91 % 1007,8 hPa 0,0 l/m 0,0 km/h NW 6,4 C 7,8 C 0,0 km/h
15.05.2010 06:00 8,0 C 91 % 1007,9 hPa 0,0 l/m 0,0 km/h N 6,6 C 8,0 C 0,0 km/h
15.05.2010 07:00 8,8 C 89 % 1007,7 hPa 0,0 l/m 2,6 km/h N-NW 7,1 C 8,8 C 1,4 km/h
15.05.2010 08:00 8,8 C 88 % 1008,2 hPa 0,0 l/m 0,0 km/h NO 6,9 C 8,8 C 0,0 km/h
15.05.2010 09:00 9,9 C 84 % 1008,1 hPa 0,0 l/m 13,0 km/h N-NO 7,3 C 5,9 C 7,2 km/h
15.05.2010 10:00 10,0 C 82 % 1008,3 hPa 0,0 l/m 5,8 km/h N-NO 7,1 C 10,0 C 3,2 km/h
15.05.2010 11:00 12,7 C 73 % 1008,6 hPa 0,0 l/m 5,8 km/h N-NO 8,0 C 12,7 C 3,2 km/h
15.05.2010 12:00 12,9 C 69 % 1008,5 hPa 0,0 l/m 1,9 km/h N 7,4 C 12,9 C 1,1 km/h
15.05.2010 13:00 11,9 C 70 % 1008,9 hPa 0,0 l/m 0,0 km/h S-SO 6,6 C 11,9 C 0,0 km/h
15.05.2010 14:00 11,1 C 76 % 1009,2 hPa 0,0 l/m 1,9 km/h SO 7,0 C 11,1 C 1,1 km/h
15.05.2010 15:00 12,1 C 67 % 1009,7 hPa 0,0 l/m 9,7 km/h NO 6,2 C 10,1 C 5,4 km/h
15.05.2010 16:00 12,1 C 66 % 1010,1 hPa 0,0 l/m 0,6 km/h NO 5,9 C 12,1 C 0,4 km/h
15.05.2010 17:00 11,9 C 64 % 1010,3 hPa 0,0 l/m 1,9 km/h N-NO 5,3 C 11,9 C 1,1 km/h
15.05.2010 18:00 10,5 C 70 % 1010,4 hPa 0,0 l/m 0,0 km/h N-NO 5,3 C 10,5 C 0,0 km/h
15.05.2010 19:00 9,9 C 74 % 1010,8 hPa 0,0 l/m 0,0 km/h NO 5,5 C 9,9 C 0,0 km/h
15.05.2010 20:00 9,1 C 80 % 1011,4 hPa 0,0 l/m 0,0 km/h O-NO 5,8 C 9,1 C 0,0 km/h
15.05.2010 21:00 7,9 C 84 % 1012,1 hPa 0,0 l/m 0,0 km/h O-NO 5,4 C 7,9 C 0,0 km/h
15.05.2010 22:00 7,8 C 86 % 1012,7 hPa 0,0 l/m 0,0 km/h O-SO 5,6 C 7,8 C 0,0 km/h
15.05.2010 23:00 7,4 C 88 % 1012,8 hPa 0,0 l/m 0,0 km/h SO 5,5 C 7,4 C 0,0 km/h
16.05.2010 00:00 7,2 C 90 % 1012,8 hPa 0,0 l/m 0,0 km/h SO 5,7 C 7,2 C 0,0 km/h
16.05.2010 01:00 6,9 C 90 % 1012,7 hPa 0,0 l/m 0,0 km/h SO 5,4 C 6,9 C 0,0 km/h
16.05.2010 02:00 6,8 C 91 % 1012,8 hPa 0,0 l/m 0,0 km/h SO 5,4 C 6,8 C 0,0 km/h
16.05.2010 03:00 6,7 C 92 % 1013,2 hPa 0,0 l/m 0,0 km/h SO 5,5 C 6,7 C 0,0 km/h
16.05.2010 04:00 6,5 C 92 % 1013,2 hPa 0,0 l/m 0,0 km/h SO 5,3 C 6,5 C 0,0 km/h
16.05.2010 05:00 6,4 C 92 % 1013,6 hPa 0,0 l/m 0,0 km/h O-SO 5,2 C 6,4 C 0,0 km/h
16.05.2010 06:00 6,9 C 92 % 1014,1 hPa 0,0 l/m 0,0 km/h SO 5,7 C 6,9 C 0,0 km/h
16.05.2010 07:00 7,6 C 91 % 1014,5 hPa 0,0 l/m 0,0 km/h S-SO 6,2 C 7,6 C 0,0 km/h
16.05.2010 08:00 10,1 C 87 % 1015,3 hPa 0,0 l/m 0,0 km/h W 8,0 C 10,1 C 0,0 km/h
16.05.2010 09:00 16,9 C 63 % 1015,5 hPa 0,0 l/m 1,9 km/h SW 9,8 C 16,9 C 1,1 km/h
16.05.2010 10:00 18,4 C 53 % 1015,5 hPa 0,0 l/m 0,0 km/h NW 8,6 C 18,4 C 0,0 km/h
16.05.2010 11:00 18,4 C 53 % 1015,7 hPa 0,0 l/m 4,5 km/h W 8,6 C 18,4 C 2,5 km/h
16.05.2010 12:00 13,4 C 60 % 1015,8 hPa 0,0 l/m 0,0 km/h S-SW 5,8 C 13,4 C 0,0 km/h
16.05.2010 13:00 17,6 C 56 % 1015,9 hPa 0,0 l/m 0,0 km/h SW 8,7 C 17,6 C 0,0 km/h
16.05.2010 14:00 15,4 C 59 % 1016,0 hPa 0,0 l/m 18,8 km/h W-SW 7,4 C 10,6 C 10,4 km/h
16.05.2010 15:00 14,8 C 63 % 1016,4 hPa 0,0 l/m 1,9 km/h S 7,8 C 14,8 C 1,1 km/h
16.05.2010 16:00 15,8 C 64 % 1016,6 hPa 0,0 l/m 8,4 km/h S 9,0 C 14,7 C 4,7 km/h
16.05.2010 17:00 15,6 C 60 % 1016,6 hPa 0,0 l/m 9,7 km/h SW 7,9 C 13,9 C 5,4 km/h
16.05.2010 18:00 14,4 C 65 % 1016,7 hPa 0,0 l/m 2,6 km/h SO 7,9 C 14,4 C 1,4 km/h
16.05.2010 19:00 12,4 C 70 % 1017,3 hPa 0,0 l/m 0,0 km/h SO 7,1 C 12,4 C 0,0 km/h
16.05.2010 20:00 10,7 C 79 % 1017,9 hPa 0,0 l/m 0,0 km/h O-SO 7,2 C 10,7 C 0,0 km/h
16.05.2010 21:00 9,6 C 81 % 1018,6 hPa 0,0 l/m 0,0 km/h SO 6,5 C 9,6 C 0,0 km/h
16.05.2010 22:00 7,6 C 84 % 1019,0 hPa 0,0 l/m 0,0 km/h O-NO 5,1 C 7,6 C 0,0 km/h
16.05.2010 23:00 6,8 C 88 % 1019,3 hPa 0,0 l/m 0,0 km/h SO 5,0 C 6,8 C 0,0 km/h
Min-Datum _ 11.05.10 12.05.10 11.05.10 - 10.05.10 - 16.05.10 12.05.10 10.05.10
_ Min-Zeit 04:53 14:53 13:53 - 00:53 - 23:53 20:53 00:53
Minimum _ 6,1 C 47 % 1000,5 hPa - 0,0 km/h - 5,0 C 5,6 C 0,0 km/h
Max-Datum _ 12.05.10 10.05.10 16.05.10 13.05.10 11.05.10 - 10.05.10 12.05.10 11.05.10
_ Max-Zeit 14:53 06:53 23:53 08:53 22:53 - 15:53 14:53 22:53
Maximum _ 23,1 C 94 % 1019,3 hPa 3,6 l/m 20,1 km/h
W-SW
- 14,6 C 23,1 C 11,2 km/h
W-SW
Durchschnitt _ 11,2 C 81 % 1008,1 hPa #28,5 l/m 1,8 km/h N-NO 7,8 C 10,9 C 1,0 km/h